QFA5 KSFO-YSSY
Flight info
| Callsign | QFA5 |
|---|---|
| Flight time | N/A |
| Altitude | 34000 |
| Route | GNNRR3 BEBOP R464 BARAZ DCT 31N140W 28N145W 25N149W/N0498F360 DCT SCOON DCT 15N157W 10N162W 05N167W/N0496F380 00N172W 05S176W DCT TESAR DCT 15S174E/N0492F400 DCT LEDIT DCT 23S163E 25S160E DCT CBULA DCT BANDA J70 IGDAM H652 BOREE |
| Aircraft | A388/J-SADE2E3FGHIJ3J4J5M1RWXY/LB1D1 |
Departure
| Time | N/A |
|---|---|
| Airport | San Francisco International Airport (KSFO) |
Arrival
| Time | 2026-05-06 07:45 |
|---|---|
| Airport | Sydney Kingsford Smith International Airport (YSSY) |
| Time | Latitude | Longitude | Altitude | Speed | Heading |
|---|---|---|---|---|---|
| 2026-05-06 06:52 | -23.87352 | 161.71195 | 42026 ft | 418 kts | 238° |
| 2026-05-06 06:52 | -23.94209 | 161.60944 | 42026 ft | 417 kts | 238° |
| 2026-05-06 06:53 | -24.07876 | 161.40447 | 42015 ft | 416 kts | 238° |
| 2026-05-06 06:53 | -24.21496 | 161.19937 | 42016 ft | 416 kts | 238° |
| 2026-05-06 06:54 | -24.35007 | 160.99505 | 42023 ft | 416 kts | 239° |
| 2026-05-06 06:54 | -24.48582 | 160.78891 | 42020 ft | 417 kts | 239° |
| 2026-05-06 06:55 | -24.62167 | 160.58173 | 42031 ft | 418 kts | 239° |
| 2026-05-06 06:55 | -24.75730 | 160.37402 | 42028 ft | 418 kts | 239° |
| 2026-05-06 06:56 | -24.89249 | 160.16608 | 42035 ft | 418 kts | 239° |
| 2026-05-06 06:56 | -25.03399 | 159.96279 | 42024 ft | 422 kts | 232° |
| 2026-05-06 06:57 | -25.19763 | 159.77681 | 42035 ft | 424 kts | 232° |
| 2026-05-06 06:57 | -25.36228 | 159.59013 | 42037 ft | 423 kts | 232° |
| 2026-05-06 06:58 | -25.52630 | 159.40329 | 42035 ft | 422 kts | 232° |
| 2026-05-06 06:58 | -25.68966 | 159.21642 | 42042 ft | 422 kts | 232° |
| 2026-05-06 06:59 | -25.85296 | 159.02884 | 42042 ft | 422 kts | 233° |
| 2026-05-06 06:59 | -26.01259 | 158.84471 | 42044 ft | 422 kts | 233° |
| 2026-05-06 07:00 | -26.17523 | 158.65629 | 42047 ft | 422 kts | 233° |
| 2026-05-06 07:00 | -26.33742 | 158.46760 | 42045 ft | 422 kts | 233° |
| 2026-05-06 07:01 | -26.49963 | 158.27807 | 42041 ft | 422 kts | 233° |
| 2026-05-06 07:01 | -26.66138 | 158.08824 | 42041 ft | 421 kts | 234° |
| 2026-05-06 07:02 | -26.82242 | 157.89842 | 42038 ft | 420 kts | 234° |
| 2026-05-06 07:02 | -26.98316 | 157.70810 | 42045 ft | 420 kts | 234° |
| 2026-05-06 07:03 | -27.14364 | 157.51726 | 42040 ft | 420 kts | 235° |
| 2026-05-06 07:03 | -27.30370 | 157.32605 | 42047 ft | 420 kts | 235° |
| 2026-05-06 07:04 | -27.46378 | 157.13396 | 42043 ft | 421 kts | 235° |
| 2026-05-06 07:04 | -27.62260 | 156.94251 | 42056 ft | 421 kts | 235° |
| 2026-05-06 07:05 | -27.78213 | 156.74932 | 42096 ft | 421 kts | 236° |
| 2026-05-06 07:05 | -27.94174 | 156.55514 | 42046 ft | 421 kts | 236° |
| 2026-05-06 07:06 | -28.10102 | 156.36046 | 42045 ft | 422 kts | 236° |
| 2026-05-06 07:06 | -28.26013 | 156.16505 | 42043 ft | 423 kts | 236° |
| 2026-05-06 07:07 | -28.41943 | 155.96850 | 42053 ft | 423 kts | 236° |
| 2026-05-06 07:07 | -28.57865 | 155.77111 | 42064 ft | 423 kts | 236° |
| 2026-05-06 07:08 | -28.73746 | 155.57326 | 42062 ft | 424 kts | 237° |
| 2026-05-06 07:08 | -28.89612 | 155.37463 | 42054 ft | 424 kts | 237° |
| 2026-05-06 07:09 | -29.05489 | 155.17490 | 42075 ft | 425 kts | 237° |
| 2026-05-06 07:09 | -29.21412 | 154.97359 | 42080 ft | 427 kts | 237° |
| 2026-05-06 07:10 | -29.37350 | 154.77107 | 42081 ft | 429 kts | 237° |
| 2026-05-06 07:10 | -29.53260 | 154.56789 | 42074 ft | 429 kts | 237° |
| 2026-05-06 07:11 | -29.69254 | 154.36260 | 42090 ft | 431 kts | 237° |
| 2026-05-06 07:11 | -29.85245 | 154.15628 | 42086 ft | 432 kts | 237° |
| 2026-05-06 07:12 | -30.01249 | 153.94870 | 42086 ft | 434 kts | 237° |
| 2026-05-06 07:12 | -30.17145 | 153.74157 | 42068 ft | 435 kts | 237° |
| 2026-05-06 07:13 | -30.31568 | 153.52178 | 42078 ft | 424 kts | 246° |
| 2026-05-06 07:13 | -30.43711 | 153.28618 | 42101 ft | 427 kts | 246° |
| 2026-05-06 07:14 | -30.55838 | 153.04926 | 42094 ft | 427 kts | 247° |
| 2026-05-06 07:14 | -30.67890 | 152.81237 | 42083 ft | 427 kts | 247° |
| 2026-05-06 07:15 | -30.81342 | 152.58359 | 42078 ft | 459 kts | 221° |
| 2026-05-06 07:15 | -30.93533 | 152.52584 | 42073 ft | 471 kts | 215° |
| 2026-05-06 07:15 | -31.05059 | 152.45546 | 42078 ft | 467 kts | 218° |
| 2026-05-06 07:16 | -31.27994 | 152.31086 | 42097 ft | 469 kts | 218° |
| 2026-05-06 07:16 | -31.39406 | 152.23880 | 41589 ft | 459 kts | 218° |
| 2026-05-06 07:16 | -31.49769 | 152.17299 | 40684 ft | 462 kts | 218° |
| 2026-05-06 07:16 | -31.52593 | 152.15507 | 40455 ft | 461 kts | 218° |
| 2026-05-06 07:17 | -31.55410 | 152.13717 | 40221 ft | 461 kts | 218° |
| 2026-05-06 07:17 | -31.58234 | 152.11921 | 39984 ft | 462 kts | 218° |
| 2026-05-06 07:17 | -31.61047 | 152.10130 | 39756 ft | 463 kts | 218° |
| 2026-05-06 07:17 | -31.63890 | 152.08320 | 39527 ft | 462 kts | 218° |
| 2026-05-06 07:18 | -31.66709 | 152.06524 | 39294 ft | 462 kts | 218° |
| 2026-05-06 07:18 | -31.69536 | 152.04720 | 39078 ft | 462 kts | 218° |
| 2026-05-06 07:18 | -31.72360 | 152.02918 | 38854 ft | 463 kts | 218° |
| 2026-05-06 07:18 | -31.75188 | 152.01110 | 38648 ft | 463 kts | 218° |
| 2026-05-06 07:19 | -31.78022 | 151.99298 | 38378 ft | 464 kts | 218° |
| 2026-05-06 07:19 | -31.80859 | 151.97483 | 38102 ft | 465 kts | 218° |
| 2026-05-06 07:19 | -31.83698 | 151.95666 | 37822 ft | 465 kts | 218° |
| 2026-05-06 07:19 | -31.86538 | 151.93848 | 37558 ft | 465 kts | 218° |
| 2026-05-06 07:20 | -31.89381 | 151.92024 | 37283 ft | 467 kts | 217° |
| 2026-05-06 07:20 | -31.92247 | 151.90185 | 37020 ft | 470 kts | 217° |
| 2026-05-06 07:20 | -31.95115 | 151.88345 | 36792 ft | 470 kts | 217° |
| 2026-05-06 07:20 | -31.97970 | 151.86514 | 36540 ft | 468 kts | 217° |
| 2026-05-06 07:21 | -32.00802 | 151.84695 | 36295 ft | 468 kts | 217° |
| 2026-05-06 07:21 | -32.03663 | 151.82855 | 36038 ft | 469 kts | 217° |
| 2026-05-06 07:21 | -32.06535 | 151.81005 | 35796 ft | 470 kts | 217° |
| 2026-05-06 07:21 | -32.09405 | 151.79156 | 35551 ft | 470 kts | 217° |
| 2026-05-06 07:22 | -32.12282 | 151.77302 | 35309 ft | 472 kts | 217° |
| 2026-05-06 07:22 | -32.15154 | 151.75446 | 35170 ft | 472 kts | 213° |
| 2026-05-06 07:22 | -32.18052 | 151.73569 | 34937 ft | 476 kts | 216° |
| 2026-05-06 07:22 | -32.20963 | 151.71700 | 34453 ft | 475 kts | 216° |
| 2026-05-06 07:23 | -32.23795 | 151.69872 | 33496 ft | 478 kts | 216° |
| 2026-05-06 07:23 | -32.26720 | 151.67975 | 32403 ft | 481 kts | 216° |
| 2026-05-06 07:23 | -32.29647 | 151.66080 | 31615 ft | 477 kts | 215° |
| 2026-05-06 07:23 | -32.32531 | 151.64217 | 31127 ft | 467 kts | 215° |
| 2026-05-06 07:24 | -32.35361 | 151.62386 | 30381 ft | 463 kts | 215° |
| 2026-05-06 07:24 | -32.38188 | 151.60547 | 29378 ft | 464 kts | 214° |
| 2026-05-06 07:24 | -32.40999 | 151.58721 | 28667 ft | 457 kts | 214° |
| 2026-05-06 07:24 | -32.43752 | 151.56937 | 28170 ft | 446 kts | 214° |
| 2026-05-06 07:25 | -32.46460 | 151.55177 | 27406 ft | 443 kts | 214° |
| 2026-05-06 07:25 | -32.49145 | 151.53429 | 26702 ft | 438 kts | 214° |
| 2026-05-06 07:25 | -32.51806 | 151.51694 | 25985 ft | 435 kts | 214° |
| 2026-05-06 07:25 | -32.54443 | 151.49973 | 25282 ft | 431 kts | 213° |
| 2026-05-06 07:26 | -32.57061 | 151.48266 | 24586 ft | 427 kts | 213° |
| 2026-05-06 07:26 | -32.59654 | 151.46574 | 23895 ft | 425 kts | 213° |
| 2026-05-06 07:26 | -32.62235 | 151.44888 | 23116 ft | 421 kts | 213° |
| 2026-05-06 07:26 | -32.64785 | 151.43222 | 22439 ft | 415 kts | 212° |
| 2026-05-06 07:27 | -32.67297 | 151.41580 | 21762 ft | 410 kts | 212° |
| 2026-05-06 07:27 | -32.69783 | 151.39954 | 21088 ft | 406 kts | 212° |
| 2026-05-06 07:27 | -32.72240 | 151.38345 | 20422 ft | 401 kts | 212° |
| 2026-05-06 07:27 | -32.74680 | 151.36746 | 19732 ft | 399 kts | 211° |
| 2026-05-06 07:28 | -32.77091 | 151.35165 | 19104 ft | 394 kts | 211° |
| 2026-05-06 07:28 | -32.79478 | 151.33599 | 18454 ft | 391 kts | 211° |
| 2026-05-06 07:28 | -32.84193 | 151.30506 | 17122 ft | 382 kts | 211° |
| 2026-05-06 07:29 | -32.86503 | 151.28989 | 16496 ft | 377 kts | 211° |
| 2026-05-06 07:29 | -32.88783 | 151.27491 | 15885 ft | 372 kts | 211° |
| 2026-05-06 07:29 | -32.91037 | 151.26008 | 15289 ft | 368 kts | 210° |
| 2026-05-06 07:29 | -32.93265 | 151.24542 | 14682 ft | 364 kts | 210° |
| 2026-05-06 07:30 | -32.95471 | 151.23089 | 14082 ft | 361 kts | 210° |
| 2026-05-06 07:30 | -32.97660 | 151.21647 | 13475 ft | 357 kts | 211° |
| 2026-05-06 07:30 | -32.99820 | 151.20225 | 12906 ft | 352 kts | 211° |
| 2026-05-06 07:30 | -33.01954 | 151.18817 | 12349 ft | 348 kts | 211° |
| 2026-05-06 07:31 | -33.04055 | 151.17431 | 11796 ft | 344 kts | 211° |
| 2026-05-06 07:31 | -33.06107 | 151.16076 | 11259 ft | 340 kts | 211° |
| 2026-05-06 07:31 | -33.08162 | 151.14719 | 10661 ft | 337 kts | 211° |
| 2026-05-06 07:31 | -33.10220 | 151.13358 | 10137 ft | 334 kts | 212° |
| 2026-05-06 07:32 | -33.12206 | 151.12046 | 9978 ft | 319 kts | 212° |
| 2026-05-06 07:32 | -33.14101 | 151.10795 | 9842 ft | 304 kts | 212° |
| 2026-05-06 07:32 | -33.15911 | 151.09597 | 9698 ft | 292 kts | 212° |
| 2026-05-06 07:32 | -33.17670 | 151.08430 | 9583 ft | 289 kts | 212° |
| 2026-05-06 07:33 | -33.19435 | 151.07256 | 9283 ft | 290 kts | 212° |
| 2026-05-06 07:33 | -33.21192 | 151.06089 | 9066 ft | 287 kts | 212° |
| 2026-05-06 07:33 | -33.22971 | 151.05019 | 9044 ft | 287 kts | 201° |
| 2026-05-06 07:33 | -33.24947 | 151.04628 | 8804 ft | 293 kts | 180° |
| 2026-05-06 07:34 | -33.26970 | 151.04972 | 8503 ft | 293 kts | 172° |
| 2026-05-06 07:34 | -33.28966 | 151.05387 | 8398 ft | 292 kts | 172° |
| 2026-05-06 07:34 | -33.30968 | 151.05748 | 8227 ft | 290 kts | 175° |
| 2026-05-06 07:34 | -33.32967 | 151.06085 | 8077 ft | 290 kts | 172° |
| 2026-05-06 07:35 | -33.34957 | 151.06488 | 7812 ft | 293 kts | 172° |
| 2026-05-06 07:35 | -33.36969 | 151.06867 | 7499 ft | 291 kts | 173° |
| 2026-05-06 07:35 | -33.38971 | 151.07203 | 7076 ft | 290 kts | 174° |
| 2026-05-06 07:35 | -33.40964 | 151.07509 | 6700 ft | 288 kts | 174° |
| 2026-05-06 07:36 | -33.42937 | 151.07799 | 6306 ft | 285 kts | 174° |
| 2026-05-06 07:36 | -33.44902 | 151.08084 | 5839 ft | 285 kts | 174° |
| 2026-05-06 07:36 | -33.46855 | 151.08366 | 5511 ft | 280 kts | 174° |
| 2026-05-06 07:36 | -33.48777 | 151.08646 | 5155 ft | 277 kts | 174° |
| 2026-05-06 07:37 | -33.50678 | 151.08923 | 4800 ft | 274 kts | 174° |
| 2026-05-06 07:37 | -33.52560 | 151.09197 | 4448 ft | 272 kts | 173° |
| 2026-05-06 07:37 | -33.54437 | 151.09470 | 4103 ft | 273 kts | 173° |
| 2026-05-06 07:37 | -33.55680 | 151.09651 | 3865 ft | 271 kts | 173° |
| 2026-05-06 07:38 | -33.57540 | 151.09918 | 3521 ft | 269 kts | 174° |
| 2026-05-06 07:38 | -33.59422 | 151.10007 | 3346 ft | 268 kts | 180° |
| 2026-05-06 07:38 | -33.61260 | 151.09983 | 3279 ft | 257 kts | 180° |
| 2026-05-06 07:38 | -33.62984 | 151.09950 | 3195 ft | 242 kts | 181° |
| 2026-05-06 07:39 | -33.64647 | 151.09995 | 3111 ft | 237 kts | 174° |
| 2026-05-06 07:39 | -33.66272 | 151.10274 | 3048 ft | 236 kts | 169° |
| 2026-05-06 07:39 | -33.67866 | 151.10666 | 3038 ft | 235 kts | 167° |
| 2026-05-06 07:39 | -33.69463 | 151.11078 | 3030 ft | 230 kts | 167° |
| 2026-05-06 07:40 | -33.70977 | 151.11467 | 3034 ft | 215 kts | 167° |
| 2026-05-06 07:40 | -33.72370 | 151.11828 | 3050 ft | 191 kts | 167° |
| 2026-05-06 07:40 | -33.73659 | 151.12161 | 3035 ft | 191 kts | 167° |
| 2026-05-06 07:40 | -33.74967 | 151.12500 | 3027 ft | 195 kts | 167° |
| 2026-05-06 07:41 | -33.76292 | 151.12843 | 3009 ft | 195 kts | 167° |
| 2026-05-06 07:41 | -33.77609 | 151.13184 | 3005 ft | 192 kts | 168° |
| 2026-05-06 07:41 | -33.78822 | 151.13498 | 2813 ft | 163 kts | 167° |
| 2026-05-06 07:41 | -33.79877 | 151.13772 | 2600 ft | 149 kts | 167° |
| 2026-05-06 07:42 | -33.80871 | 151.14030 | 2406 ft | 143 kts | 167° |
| 2026-05-06 07:42 | -33.81846 | 151.14282 | 2221 ft | 144 kts | 166° |
| 2026-05-06 07:42 | -33.82816 | 151.14534 | 2032 ft | 141 kts | 166° |
| 2026-05-06 07:42 | -33.83778 | 151.14783 | 1844 ft | 141 kts | 166° |
| 2026-05-06 07:43 | -33.84737 | 151.15032 | 1661 ft | 140 kts | 166° |
| 2026-05-06 07:43 | -33.85689 | 151.15278 | 1451 ft | 140 kts | 166° |
| 2026-05-06 07:43 | -33.86633 | 151.15523 | 1278 ft | 139 kts | 166° |
| 2026-05-06 07:43 | -33.87573 | 151.15769 | 1090 ft | 138 kts | 166° |
| 2026-05-06 07:44 | -33.88511 | 151.16010 | 914 ft | 138 kts | 166° |
| 2026-05-06 07:44 | -33.89456 | 151.16260 | 737 ft | 140 kts | 164° |
| 2026-05-06 07:44 | -33.90403 | 151.16504 | 563 ft | 137 kts | 165° |
| 2026-05-06 07:44 | -33.91338 | 151.16745 | 378 ft | 136 kts | 164° |
| 2026-05-06 07:45 | -33.92247 | 151.16984 | 214 ft | 136 kts | 165° |
| 2026-05-06 07:45 | -33.93165 | 151.17212 | 27 ft | 133 kts | 164° |
| 2026-05-06 07:45 | -33.93906 | 151.17410 | 26 ft | 89 kts | 167° |
| 2026-05-06 07:45 | -33.94376 | 151.17532 | 29 ft | 47 kts | 168° |
| 2026-05-06 07:46 | -33.94523 | 151.17597 | 30 ft | 15 kts | 121° |
| 2026-05-06 07:46 | -33.94524 | 151.17720 | 29 ft | 16 kts | 82° |
| 2026-05-06 07:46 | -33.94570 | 151.17809 | 30 ft | 13 kts | 163° |
| 2026-05-06 07:46 | -33.94728 | 151.17849 | 26 ft | 41 kts | 169° |
| 2026-05-06 07:47 | -33.94915 | 151.17893 | 27 ft | 16 kts | 169° |
| 2026-05-06 07:47 | -33.95028 | 151.17922 | 30 ft | 15 kts | 168° |
| 2026-05-06 07:47 | -33.95112 | 151.17928 | 30 ft | 13 kts | 203° |
| 2026-05-06 07:47 | -33.95155 | 151.17824 | 28 ft | 18 kts | 260° |
| 2026-05-06 07:48 | -33.95234 | 151.17704 | 27 ft | 19 kts | 227° |
| 2026-05-06 07:48 | -33.95244 | 151.17568 | 26 ft | 15 kts | 323° |
| 2026-05-06 07:48 | -33.95135 | 151.17524 | 28 ft | 18 kts | 347° |
| 2026-05-06 07:48 | -33.95000 | 151.17488 | 30 ft | 22 kts | 349° |
| 2026-05-06 07:49 | -33.94825 | 151.17445 | 27 ft | 29 kts | 347° |
| 2026-05-06 07:49 | -33.94617 | 151.17393 | 31 ft | 31 kts | 347° |
| 2026-05-06 07:49 | -33.94433 | 151.17344 | 31 ft | 24 kts | 348° |
| 2026-05-06 07:49 | -33.94302 | 151.17309 | 29 ft | 17 kts | 347° |
| 2026-05-06 07:50 | -33.94171 | 151.17275 | 27 ft | 21 kts | 348° |
| 2026-05-06 07:50 | -33.94041 | 151.17241 | 32 ft | 11 kts | 347° |
| 2026-05-06 07:50 | -33.93980 | 151.17176 | 28 ft | 14 kts | 276° |
| 2026-05-06 07:50 | -33.93928 | 151.17089 | 26 ft | 14 kts | 338° |
| 2026-05-06 07:51 | -33.93829 | 151.17061 | 29 ft | 5 kts | 350° |
| 2026-05-06 07:51 | -33.93785 | 151.17035 | 26 ft | 0 kts | 291° |
| 2026-05-06 07:51 | -33.93783 | 151.17003 | 26 ft | 0 kts | 255° |
| 2026-05-06 07:51 | -33.93785 | 151.16996 | 26 ft | 4 kts | 256° |
| 2026-05-06 07:52 | -33.93788 | 151.16982 | 26 ft | 2 kts | 255° |
| 2026-05-06 07:52 | -33.93793 | 151.16960 | 31 ft | 3 kts | 254° |
| 2026-05-06 07:52 | -33.93794 | 151.16958 | 26 ft | 0 kts | 254° |